Time;durP1;ratioP1;P1;durP2;ratioP2;P2;SDS_P1;SDS_P2;PMS_P1;PMS_P2;Temp;Humidity;BMP_temperature;BMP_pressure;BME280_temperature;BME280_humidity;BME280_pressure;Samples;Min_cycle;Max_cycle;Signal;HPM_P1;HPM_P2
2023/01/24 00:00:36;;;;;;;3.03;2.83;;;18.40;35.90;;;;;;4941800;28;21277;-87
2023/01/24 00:03:02;;;;;;;3.03;2.83;;;18.40;36.00;;;;;;4944115;28;20256;-87
2023/01/24 00:05:27;;;;;;;3.17;2.97;;;18.40;35.90;;;;;;4939090;28;20231;-87
2023/01/24 00:07:53;;;;;;;2.80;2.60;;;18.50;36.00;;;;;;4943928;28;20229;-87
2023/01/24 00:10:18;;;;;;;3.10;2.90;;;18.40;35.90;;;;;;4943605;28;20280;-87
2023/01/24 00:12:44;;;;;;;3.30;3.10;;;18.50;36.00;;;;;;4943387;28;20440;-87
2023/01/24 00:15:10;;;;;;;2.80;2.60;;;18.50;36.70;;;;;;4941807;28;20229;-87
2023/01/24 00:17:35;;;;;;;2.63;2.50;;;18.50;35.90;;;;;;4939296;28;20690;-88
2023/01/24 00:20:04;;;;;;;3.17;2.97;;;18.50;36.00;;;;;;4940970;28;20680;-89
2023/01/24 00:22:30;;;;;;;2.93;2.73;;;18.50;35.90;;;;;;4937797;28;20234;-88
2023/01/24 00:24:55;;;;;;;2.57;2.47;;;18.40;35.90;;;;;;4943002;28;20460;-87
2023/01/24 00:27:21;;;;;;;3.40;3.20;;;18.50;36.00;;;;;;4942253;28;20640;-89
2023/01/24 00:29:46;;;;;;;2.87;2.67;;;18.40;35.90;;;;;;4921195;28;20736;-88
2023/01/24 00:32:12;;;;;;;2.60;2.50;;;18.50;35.90;;;;;;4920571;28;20249;-88
2023/01/24 00:34:37;;;;;;;2.77;2.60;;;18.50;35.90;;;;;;4919756;28;20222;-88
2023/01/24 00:37:03;;;;;;;3.23;3.03;;;18.50;35.80;;;;;;4941565;28;20241;-89
2023/01/24 00:39:28;;;;;;;2.90;2.70;;;18.50;35.80;;;;;;4940256;28;20334;-87
2023/01/24 00:41:54;;;;;;;3.20;3.00;;;18.50;35.80;;;;;;4944894;28;20276;-88
2023/01/24 00:44:19;;;;;;;2.80;2.70;;;18.50;35.80;;;;;;4933454;28;20227;-87
2023/01/24 00:46:45;;;;;;;3.20;3.00;;;18.50;35.90;;;;;;4937946;28;20237;-87
2023/01/24 00:49:10;;;;;;;3.10;2.90;;;18.50;36.70;;;;;;4940516;28;20224;-89
2023/01/24 00:51:36;;;;;;;3.23;3.03;;;18.40;35.80;;;;;;4941799;28;20689;-88
2023/01/24 00:54:01;;;;;;;2.80;2.60;;;18.40;35.80;;;;;;4946223;28;20593;-87
2023/01/24 00:56:27;;;;;;;2.93;2.73;;;18.40;35.90;;;;;;4940325;28;20237;-87
2023/01/24 00:58:53;;;;;;;2.90;2.70;;;18.40;35.90;;;;;;4945831;28;20275;-87
2023/01/24 01:01:19;;;;;;;3.00;2.80;;;18.40;35.80;;;;;;4940315;28;20226;-88
2023/01/24 01:03:45;;;;;;;3.03;2.83;;;18.40;35.90;;;;;;4941736;28;20697;-88
2023/01/24 01:06:14;;;;;;;2.60;2.50;;;18.40;35.90;;;;;;4940917;28;20431;-88
2023/01/24 01:08:39;;;;;;;2.77;2.57;;;18.40;35.90;;;;;;4945424;28;20249;-88
2023/01/24 01:11:05;;;;;;;2.30;2.10;;;18.40;35.90;;;;;;4941826;28;20529;-88
2023/01/24 01:13:31;;;;;;;2.87;2.67;;;18.40;35.90;;;;;;4942138;28;20221;-87
2023/01/24 01:16:01;;;;;;;3.03;2.83;;;18.40;35.90;;;;;;4927125;28;20473;-88
2023/01/24 01:18:27;;;;;;;2.87;2.77;;;18.40;35.90;;;;;;4946750;28;20277;-88
2023/01/24 01:20:52;;;;;;;2.70;2.50;;;18.40;35.90;;;;;;4941234;28;20527;-87
2023/01/24 01:23:18;;;;;;;2.77;2.67;;;18.40;35.90;;;;;;4939910;28;20316;-87
2023/01/24 01:25:43;;;;;;;3.00;2.80;;;18.40;35.90;;;;;;4941664;28;20772;-87
2023/01/24 01:28:09;;;;;;;2.43;2.23;;;18.40;36.00;;;;;;4944651;28;20233;-87
2023/01/24 01:30:34;;;;;;;2.70;2.60;;;18.40;35.90;;;;;;4941219;28;20221;-88
2023/01/24 01:33:00;;;;;;;2.93;2.73;;;18.40;35.90;;;;;;4942131;28;20931;-87
2023/01/24 01:35:26;;;;;;;3.07;2.83;;;18.40;35.90;;;;;;4943679;28;20962;-88
2023/01/24 01:37:51;;;;;;;3.70;2.60;;;18.40;35.90;;;;;;4939860;28;20240;-89
2023/01/24 01:40:18;;;;;;;2.80;2.67;;;18.40;35.90;;;;;;4940877;28;22198;-87
2023/01/24 01:42:56;;;;;;;3.00;2.80;;;18.40;36.00;;;;;;4943189;28;20239;-88
2023/01/24 01:45:39;;;;;;;2.50;2.40;;;18.40;35.90;;;;;;4938670;28;20470;-89
2023/01/24 01:48:37;;;;;;;3.17;2.97;;;18.40;36.00;;;;;;4942323;28;20470;-88
2023/01/24 01:51:24;;;;;;;2.67;2.57;;;18.40;36.00;;;;;;4940722;28;20441;-88
2023/01/24 01:53:56;;;;;;;3.03;2.83;;;18.40;36.00;;;;;;4939090;28;20478;-88
2023/01/24 01:56:41;;;;;;;3.03;2.83;;;18.40;36.00;;;;;;4936901;28;20446;-88
2023/01/24 01:59:14;;;;;;;2.60;2.50;;;18.40;36.00;;;;;;4944919;28;20474;-88
2023/01/24 02:01:40;;;;;;;2.90;2.70;;;18.40;36.00;;;;;;4940932;28;20447;-88
2023/01/24 02:04:10;;;;;;;2.70;2.57;;;18.40;36.00;;;;;;4939676;28;20438;-88
2023/01/24 02:07:02;;;;;;;3.10;2.80;;;18.40;36.00;;;;;;4939635;28;20942;-88
2023/01/24 02:09:32;;;;;;;3.10;2.90;;;18.40;36.00;;;;;;4936795;28;20453;-88
2023/01/24 02:12:03;;;;;;;2.40;2.30;;;18.40;36.00;;;;;;4933155;28;20445;-89
2023/01/24 02:17:18;;;;;;;3.07;2.87;;;18.40;36.00;;;;;;4938741;28;20452;-88
2023/01/24 02:19:55;;;;;;;2.40;2.30;;;18.40;36.00;;;;;;4937001;28;20434;-88
2023/01/24 02:22:45;;;;;;;2.83;2.63;;;18.40;36.00;;;;;;4942201;28;20446;-87
2023/01/24 02:25:24;;;;;;;2.50;2.40;;;18.40;36.00;;;;;;4945824;28;20930;-87
2023/01/24 02:27:50;;;;;;;2.67;2.47;;;18.40;36.80;;;;;;4944426;28;20444;-87
2023/01/24 02:30:15;;;;;;;2.80;2.70;;;18.40;36.00;;;;;;4945703;28;20504;-87
2023/01/24 02:32:41;;;;;;;3.23;3.00;;;18.40;36.00;;;;;;4943531;28;20855;-87
2023/01/24 02:35:20;;;;;;;2.37;2.27;;;18.40;36.00;;;;;;4924424;28;20681;-87
2023/01/24 02:37:46;;;;;;;2.60;2.50;;;18.40;36.00;;;;;;4946356;28;20843;-86
2023/01/24 02:40:12;;;;;;;2.40;2.20;;;18.40;36.00;;;;;;4941135;28;20471;-88
2023/01/24 02:42:38;;;;;;;2.43;2.33;;;18.40;36.00;;;;;;4923936;28;20708;-87
2023/01/24 02:45:20;;;;;;;2.63;2.43;;;18.40;36.00;;;;;;4941870;28;20454;-87
2023/01/24 02:47:48;;;;;;;2.13;2.03;;;18.40;36.00;;;;;;4944501;28;20436;-87
2023/01/24 02:50:15;;;;;;;2.40;2.30;;;18.40;36.00;;;;;;4940571;28;20482;-86
2023/01/24 02:55:25;;;;;;;2.67;2.57;;;18.40;36.00;;;;;;4941699;28;20505;-88
2023/01/24 02:58:06;;;;;;;2.13;2.03;;;18.40;36.00;;;;;;4929728;28;20848;-88
2023/01/24 03:00:38;;;;;;;2.70;2.50;;;18.40;36.00;;;;;;4942129;28;20275;-87
2023/01/24 03:03:05;;;;;;;3.00;2.80;;;18.40;36.00;;;;;;4943712;28;20657;-88
2023/01/24 03:08:30;;;;;;;2.60;2.50;;;18.40;36.00;;;;;;4920981;28;20447;-90
2023/01/24 03:10:56;;;;;;;3.33;3.13;;;18.40;36.00;;;;;;4941636;28;20425;-88
2023/01/24 03:35:19;;;;;;;2.40;2.30;;;18.40;36.00;;;;;;4948066;28;20447;-88
2023/01/24 03:40:29;;;;;;;2.50;2.30;;;18.30;35.90;;;;;;4945304;28;20241;-88
2023/01/24 03:42:55;;;;;;;2.23;2.13;;;18.40;36.00;;;;;;4944031;28;20418;-88
2023/01/24 03:45:24;;;;;;;2.30;2.20;;;18.40;36.00;;;;;;4942718;28;20225;-88
2023/01/24 03:48:04;;;;;;;2.30;2.20;;;18.40;36.00;;;;;;4946765;28;20232;-88
2023/01/24 03:53:28;;;;;;;2.07;1.97;;;18.30;35.90;;;;;;4945424;28;20496;-88
2023/01/24 03:55:59;;;;;;;2.30;2.20;;;18.40;36.00;;;;;;4943939;28;20443;-87
2023/01/24 03:58:27;;;;;;;2.10;2.00;;;18.30;35.90;;;;;;4946825;28;20418;-87
2023/01/24 04:00:53;;;;;;;2.37;2.27;;;18.40;36.00;;;;;;4927876;28;21064;-88
2023/01/24 04:03:19;;;;;;;2.07;1.97;;;18.40;36.10;;;;;;4947927;28;20421;-87
2023/01/24 04:05:49;;;;;;;2.10;2.00;;;18.40;36.00;;;;;;4943594;28;20989;-88
2023/01/24 04:08:15;;;;;;;2.30;2.20;;;18.40;36.00;;;;;;4943414;28;20221;-87
2023/01/24 04:10:41;;;;;;;2.00;1.90;;;18.40;36.00;;;;;;4945116;28;21741;-87
2023/01/24 04:13:09;;;;;;;1.97;1.87;;;18.40;36.00;;;;;;4948102;28;21050;-89
2023/01/24 04:15:34;;;;;;;2.50;2.40;;;18.40;36.10;;;;;;4940791;28;20740;-87
2023/01/24 04:18:02;;;;;;;1.97;1.87;;;18.30;36.00;;;;;;4944964;28;20472;-87
2023/01/24 04:20:30;;;;;;;2.23;2.13;;;18.40;36.00;;;;;;4944275;28;20673;-87
2023/01/24 04:22:56;;;;;;;2.57;2.47;;;18.40;36.10;;;;;;4944711;28;20450;-87
2023/01/24 04:25:22;;;;;;;1.90;1.80;;;18.40;36.00;;;;;;4945207;28;20477;-87
2023/01/24 04:27:48;;;;;;;2.10;2.00;;;18.30;35.90;;;;;;4943577;28;20233;-87
2023/01/24 04:30:15;;;;;;;2.00;1.90;;;18.30;36.00;;;;;;4941631;28;20229;-87
2023/01/24 04:32:41;;;;;;;2.20;2.10;;;18.30;35.90;;;;;;4942458;28;20517;-88
2023/01/24 04:35:07;;;;;;;2.20;2.10;;;18.40;36.00;;;;;;4943802;28;20475;-89
2023/01/24 04:37:33;;;;;;;2.13;2.03;;;18.40;36.00;;;;;;4942706;28;20241;-89
2023/01/24 04:40:01;;;;;;;2.10;2.00;;;18.40;36.00;;;;;;4926196;28;20460;-88
2023/01/24 04:42:26;;;;;;;2.00;1.90;;;18.40;36.00;;;;;;4943746;28;20327;-87
2023/01/24 04:44:52;;;;;;;2.30;2.20;;;18.40;36.00;;;;;;4942449;28;20613;-87
2023/01/24 04:47:17;;;;;;;2.00;1.90;;;18.40;36.00;;;;;;4942625;28;20261;-87
2023/01/24 04:49:43;;;;;;;2.07;1.97;;;18.40;36.00;;;;;;4939492;28;20218;-87
2023/01/24 04:52:12;;;;;;;1.90;1.80;;;18.40;36.00;;;;;;4945243;28;20220;-87
2023/01/24 04:54:41;;;;;;;1.60;1.50;;;18.40;35.90;;;;;;4944155;28;20307;-88
2023/01/24 04:57:07;;;;;;;2.00;1.90;;;18.40;35.90;;;;;;4937603;28;20547;-87
2023/01/24 04:59:33;;;;;;;2.23;1.90;;;18.40;35.90;;;;;;4942868;28;20438;-88
2023/01/24 05:01:59;;;;;;;2.47;2.37;;;18.40;36.20;;;;;;4939497;28;21101;-87
2023/01/24 05:04:25;;;;;;;1.83;1.73;;;18.40;35.90;;;;;;4943829;28;20296;-89
2023/01/24 05:06:50;;;;;;;1.70;1.60;;;18.40;35.90;;;;;;4939180;28;20543;-88
2023/01/24 05:09:16;;;;;;;1.83;1.73;;;18.40;35.90;;;;;;4943066;28;20229;-89
2023/01/24 05:11:41;;;;;;;2.13;2.03;;;18.40;35.90;;;;;;4941956;28;20233;-87
2023/01/24 05:14:10;;;;;;;2.10;1.90;;;18.40;35.90;;;;;;4943388;28;20222;-88
2023/01/24 05:16:36;;;;;;;1.90;1.80;;;18.40;35.80;;;;;;4927151;28;20233;-88
2023/01/24 05:19:02;;;;;;;2.40;2.20;;;18.50;35.80;;;;;;4944404;28;20421;-88
2023/01/24 05:21:28;;;;;;;2.00;1.90;;;18.50;35.80;;;;;;4943081;28;20430;-88
2023/01/24 05:23:54;;;;;;;2.07;1.97;;;18.50;35.70;;;;;;4944672;28;20518;-87
2023/01/24 05:26:21;;;;;;;1.90;1.80;;;18.50;35.70;;;;;;4937637;28;20229;-87
2023/01/24 05:28:48;;;;;;;2.70;2.50;;;18.50;35.60;;;;;;4947273;28;20241;-88
2023/01/24 05:31:13;;;;;;;2.40;2.30;;;18.50;35.60;;;;;;4941633;28;20517;-88
2023/01/24 05:33:40;;;;;;;1.67;1.57;;;18.50;35.70;;;;;;4948228;28;20441;-85
2023/01/24 05:36:12;;;;;;;2.10;2.00;;;18.50;35.70;;;;;;4939555;28;20248;-86
2023/01/24 05:38:37;;;;;;;2.10;2.00;;;18.50;35.60;;;;;;4940035;28;21122;-87
2023/01/24 05:41:08;;;;;;;1.90;1.80;;;18.50;35.60;;;;;;4942068;28;20463;-86
2023/01/24 05:43:35;;;;;;;1.80;1.70;;;18.50;35.70;;;;;;4945336;28;20336;-88
2023/01/24 05:46:03;;;;;;;1.80;1.70;;;18.50;35.70;;;;;;4940880;28;20517;-88
2023/01/24 05:48:29;;;;;;;1.90;1.80;;;18.50;35.70;;;;;;4942807;28;20474;-89
2023/01/24 05:51:05;;;;;;;1.90;1.80;;;18.50;35.80;;;;;;4917374;28;20449;-88
2023/01/24 05:53:32;;;;;;;2.00;1.90;;;18.50;35.70;;;;;;4944899;28;20316;-87
2023/01/24 05:55:59;;;;;;;1.80;1.70;;;18.50;35.70;;;;;;4952851;28;20455;-87
2023/01/24 05:58:26;;;;;;;1.67;1.57;;;18.50;35.80;;;;;;4962382;28;20433;-87
2023/01/24 06:00:52;;;;;;;1.90;1.80;;;18.50;35.80;;;;;;4947843;28;20470;-87
2023/01/24 06:03:18;;;;;;;1.97;1.87;;;18.50;35.80;;;;;;4936733;28;20655;-86
2023/01/24 06:05:52;;;;;;;1.90;1.80;;;18.50;35.80;;;;;;4936021;28;20502;-87
2023/01/24 06:08:18;;;;;;;1.80;1.70;;;18.50;35.80;;;;;;4954608;28;20497;-87
2023/01/24 06:10:43;;;;;;;2.20;2.10;;;18.50;35.80;;;;;;4954463;28;20474;-88
2023/01/24 06:13:10;;;;;;;1.80;1.70;;;18.50;35.80;;;;;;4940800;28;20429;-90
2023/01/24 06:15:36;;;;;;;1.80;1.70;;;18.50;35.80;;;;;;4944975;28;20656;-90
2023/01/24 06:18:02;;;;;;;2.03;1.93;;;18.50;35.80;;;;;;4950526;28;20517;-88
2023/01/24 06:20:28;;;;;;;1.90;1.80;;;18.50;35.80;;;;;;4937077;28;20561;-88
2023/01/24 06:23:01;;;;;;;1.97;1.87;;;18.50;35.80;;;;;;4943781;28;20442;-88
2023/01/24 06:25:27;;;;;;;1.93;1.83;;;18.50;35.80;;;;;;4954474;28;20221;-88
2023/01/24 06:27:53;;;;;;;1.90;1.80;;;18.50;35.80;;;;;;4956348;28;20542;-91
2023/01/24 06:30:20;;;;;;;1.80;1.70;;;18.50;35.80;;;;;;4952466;28;20233;-89
2023/01/24 06:33:22;;;;;;;1.90;1.80;;;18.50;35.80;;;;;;4955684;28;20450;-89
2023/01/24 06:36:17;;;;;;;2.13;2.03;;;18.50;35.70;;;;;;4937920;28;21109;-90
2023/01/24 06:38:43;;;;;;;1.80;1.70;;;18.50;35.80;;;;;;4951370;28;20437;-89
2023/01/24 06:41:15;;;;;;;2.00;1.90;;;18.50;35.70;;;;;;4962447;28;20499;-90
2023/01/24 06:43:43;;;;;;;1.90;1.80;;;18.50;35.70;;;;;;4948939;28;20230;-90
2023/01/24 06:46:09;;;;;;;2.00;1.60;;;18.50;35.70;;;;;;4956323;28;20452;-87
2023/01/24 06:48:35;;;;;;;2.10;2.00;;;18.50;35.70;;;;;;4955297;28;20445;-90
2023/01/24 06:51:00;;;;;;;1.70;1.60;;;18.50;35.70;;;;;;4949663;28;20437;-88
2023/01/24 06:53:26;;;;;;;1.87;1.77;;;18.50;35.70;;;;;;4951524;28;20228;-89
2023/01/24 06:55:51;;;;;;;1.90;1.80;;;18.50;35.90;;;;;;4961441;28;20235;-89
2023/01/24 06:58:17;;;;;;;1.87;1.77;;;18.50;35.70;;;;;;4959615;28;20225;-88
2023/01/24 07:00:43;;;;;;;2.33;2.13;;;18.50;35.70;;;;;;4959218;28;20307;-88
2023/01/24 07:03:11;;;;;;;1.90;1.80;;;18.50;35.80;;;;;;4942432;28;20711;-88
2023/01/24 07:05:38;;;;;;;2.10;2.00;;;18.50;35.80;;;;;;4941811;28;20225;-88
2023/01/24 07:08:05;;;;;;;2.10;1.70;;;18.50;35.80;;;;;;4948578;28;20466;-89
2023/01/24 07:10:31;;;;;;;1.63;1.53;;;18.50;35.80;;;;;;4948924;28;20527;-88
2023/01/24 07:12:57;;;;;;;2.40;2.20;;;18.50;35.80;;;;;;4941212;28;21356;-88
2023/01/24 07:15:22;;;;;;;4.27;2.03;;;18.50;35.80;;;;;;4961261;28;20228;-88
2023/01/24 07:17:48;;;;;;;4.50;1.93;;;18.50;35.80;;;;;;4960651;28;20263;-88
2023/01/24 07:20:14;;;;;;;1.70;1.60;;;18.50;35.80;;;;;;4958684;28;20235;-88
2023/01/24 07:22:42;;;;;;;2.47;2.30;;;18.50;35.80;;;;;;4956146;28;20255;-88
2023/01/24 07:25:15;;;;;;;1.80;1.70;;;18.50;35.80;;;;;;4932521;28;20951;-88
2023/01/24 07:27:44;;;;;;;1.80;1.70;;;18.60;35.90;;;;;;4944503;28;20467;-92
2023/01/24 07:30:12;;;;;;;2.07;1.97;;;18.50;35.80;;;;;;4952786;28;20467;-90
2023/01/24 07:32:38;;;;;;;2.03;1.57;;;18.50;35.90;;;;;;4953769;28;21038;-94
2023/01/24 07:35:05;;;;;;;1.80;1.70;;;18.60;36.00;;;;;;4956804;28;21116;-88
2023/01/24 07:37:31;;;;;;;1.60;1.50;;;18.50;36.00;;;;;;4956484;28;20482;-90
2023/01/24 07:39:57;;;;;;;1.90;1.80;;;18.60;36.10;;;;;;4956605;28;20463;-90
2023/01/24 07:42:23;;;;;;;3.10;1.67;;;18.60;36.10;;;;;;4958242;28;20524;-89
2023/01/24 07:44:48;;;;;;;2.20;2.00;;;18.60;36.10;;;;;;4957144;28;20240;-88
2023/01/24 07:47:14;;;;;;;1.80;1.70;;;18.60;36.10;;;;;;4951553;28;20723;-89
2023/01/24 07:49:39;;;;;;;2.30;2.10;;;18.60;36.10;;;;;;4945795;28;20225;-88
2023/01/24 07:52:05;;;;;;;1.77;1.67;;;18.60;36.10;;;;;;4948183;28;20268;-88
2023/01/24 07:54:30;;;;;;;2.10;2.00;;;18.60;36.10;;;;;;4946447;28;20302;-89
2023/01/24 07:56:56;;;;;;;3.23;1.67;;;18.60;36.10;;;;;;4961030;28;20244;-88
2023/01/24 07:59:22;;;;;;;1.80;1.70;;;18.60;36.10;;;;;;4946669;28;21106;-89
2023/01/24 08:01:47;;;;;;;1.60;1.50;;;18.60;36.20;;;;;;4949407;28;20236;-89
2023/01/24 08:04:13;;;;;;;1.90;1.80;;;18.60;36.20;;;;;;4945294;28;20957;-88
2023/01/24 08:07:16;;;;;;;4.40;2.77;;;18.60;36.30;;;;;;4945552;28;20237;-88
2023/01/24 08:09:28;;;;;;;2.30;1.70;;;18.60;36.20;;;;;;4945325;28;20235;-89
2023/01/24 08:11:54;;;;;;;1.97;1.87;;;18.60;36.30;;;;;;4962289;28;20458;-88
2023/01/24 08:14:21;;;;;;;2.00;1.60;;;18.60;36.30;;;;;;4963717;28;20421;-88
2023/01/24 08:16:50;;;;;;;1.50;1.40;;;18.60;36.30;;;;;;4961353;28;21004;-88
2023/01/24 08:19:15;;;;;;;2.87;1.87;;;18.60;36.40;;;;;;4937821;28;20828;-88
2023/01/24 08:21:41;;;;;;;1.63;1.53;;;18.60;36.40;;;;;;4960917;28;20441;-88
2023/01/24 08:24:07;;;;;;;1.80;1.70;;;18.60;36.50;;;;;;4961112;28;20251;-89
2023/01/24 08:26:32;;;;;;;2.30;2.20;;;18.60;36.50;;;;;;4959191;28;20300;-88
2023/01/24 08:28:58;;;;;;;1.60;1.50;;;18.60;36.50;;;;;;4960896;28;20225;-88
2023/01/24 08:31:23;;;;;;;1.93;1.83;;;18.60;36.50;;;;;;4956688;28;20275;-88
2023/01/24 08:33:49;;;;;;;1.73;1.63;;;18.60;36.60;;;;;;4964446;28;20616;-88
2023/01/24 08:36:14;;;;;;;1.90;1.80;;;18.60;37.30;;;;;;4945060;28;20320;-88
2023/01/24 08:38:40;;;;;;;2.00;1.90;;;18.60;36.60;;;;;;4964934;28;21456;-88
2023/01/24 08:41:07;;;;;;;1.80;1.70;;;18.60;36.60;;;;;;4962099;28;20579;-88
2023/01/24 08:43:32;;;;;;;1.90;1.70;;;18.60;36.60;;;;;;4964537;28;20312;-88
2023/01/24 08:45:58;;;;;;;2.10;2.00;;;18.60;36.60;;;;;;4962891;28;20436;-88
2023/01/24 08:48:23;;;;;;;1.77;1.67;;;18.60;36.60;;;;;;4966081;28;20233;-88
2023/01/24 08:50:49;;;;;;;2.47;1.70;;;18.60;36.60;;;;;;4946593;28;20244;-88
2023/01/24 08:53:14;;;;;;;1.90;1.80;;;18.60;36.60;;;;;;4964616;28;20681;-87
2023/01/24 08:55:40;;;;;;;1.77;1.67;;;18.60;36.60;;;;;;4962268;28;20787;-88
2023/01/24 08:58:06;;;;;;;2.30;2.10;;;18.60;36.60;;;;;;4965945;28;20248;-88
2023/01/24 09:00:31;;;;;;;3.93;3.73;;;18.60;36.60;;;;;;4962915;28;20695;-88
2023/01/24 09:03:00;;;;;;;2.00;1.90;;;18.60;36.70;;;;;;4965712;28;20223;-88
2023/01/24 09:05:26;;;;;;;1.90;1.80;;;18.60;36.70;;;;;;4947859;28;20237;-88
2023/01/24 09:07:52;;;;;;;2.07;1.53;;;18.60;36.70;;;;;;4962305;28;20518;-88
2023/01/24 09:10:17;;;;;;;1.80;1.70;;;18.60;36.70;;;;;;4963056;28;21141;-88
2023/01/24 09:12:43;;;;;;;1.77;1.67;;;18.60;36.70;;;;;;4962134;28;20228;-88
2023/01/24 09:15:09;;;;;;;1.97;1.87;;;18.60;36.70;;;;;;4957897;28;20253;-88
2023/01/24 09:17:34;;;;;;;1.60;1.50;;;18.60;36.70;;;;;;4963403;28;20242;-89
2023/01/24 09:20:00;;;;;;;2.90;1.50;;;18.60;36.70;;;;;;4962985;28;20356;-88
2023/01/24 09:22:27;;;;;;;1.70;1.60;;;18.60;36.80;;;;;;4960146;28;20224;-88
2023/01/24 09:24:52;;;;;;;2.03;1.93;;;18.60;36.70;;;;;;4942589;28;20257;-88
2023/01/24 09:27:18;;;;;;;1.60;1.50;;;18.60;36.70;;;;;;4943729;28;20534;-88
2023/01/24 09:29:43;;;;;;;1.97;1.87;;;18.60;36.70;;;;;;4956708;28;20320;-88
2023/01/24 09:32:09;;;;;;;2.40;2.30;;;18.60;36.70;;;;;;4961131;28;20243;-88
2023/01/24 09:34:34;;;;;;;2.03;1.93;;;18.60;36.70;;;;;;4957727;28;20952;-88
2023/01/24 09:37:00;;;;;;;1.80;1.70;;;18.60;36.70;;;;;;4947841;28;20241;-89
2023/01/24 09:39:25;;;;;;;2.33;1.90;;;18.60;36.60;;;;;;4943132;28;20256;-88
2023/01/24 09:42:08;;;;;;;1.73;1.63;;;18.60;36.60;;;;;;4961566;28;20695;-88
2023/01/24 09:44:45;;;;;;;1.90;1.80;;;18.60;36.60;;;;;;4941535;28;20304;-88
2023/01/24 09:47:41;;;;;;;1.70;1.60;;;18.60;36.60;;;;;;4957184;28;20514;-89
2023/01/24 09:50:16;;;;;;;1.90;1.80;;;18.60;36.60;;;;;;4952708;28;20985;-89
2023/01/24 09:52:49;;;;;;;1.60;1.50;;;18.60;36.60;;;;;;4963046;28;20444;-88
2023/01/24 09:55:25;;;;;;;1.80;1.70;;;18.60;36.60;;;;;;4960071;28;20451;-89
2023/01/24 09:57:58;;;;;;;2.20;1.87;;;18.60;36.60;;;;;;4963681;28;20483;-89
2023/01/24 10:00:28;;;;;;;1.60;1.50;;;18.60;36.50;;;;;;4962466;28;20550;-88
2023/01/24 10:02:56;;;;;;;1.60;1.50;;;18.60;36.60;;;;;;4961903;28;20455;-88
2023/01/24 10:05:31;;;;;;;1.70;1.60;;;18.60;36.50;;;;;;4962638;28;20458;-88
2023/01/24 10:08:22;;;;;;;1.77;1.50;;;18.60;36.60;;;;;;4952469;28;20545;-88
2023/01/24 10:11:00;;;;;;;1.80;1.70;;;18.60;36.60;;;;;;4942628;28;20464;-88
2023/01/24 10:13:59;;;;;;;1.90;1.80;;;18.60;36.80;;;;;;4960148;28;20437;-88
2023/01/24 10:17:12;;;;;;;2.10;2.00;;;18.60;36.50;;;;;;4918708;29;20434;-88
2023/01/24 10:20:05;;;;;;;3.73;1.83;;;18.60;36.50;;;;;;4946530;28;20521;-88
2023/01/24 10:22:53;;;;;;;1.37;1.27;;;18.60;36.50;;;;;;4942243;28;20935;-88
2023/01/24 10:25:57;;;;;;;2.10;1.73;;;18.60;36.60;;;;;;4952284;28;20459;-88
2023/01/24 10:28:34;;;;;;;1.63;1.53;;;18.60;36.60;;;;;;4941290;28;20461;-88
2023/01/24 10:31:14;;;;;;;1.67;1.57;;;18.60;36.50;;;;;;4944369;28;20457;-89
2023/01/24 10:33:53;;;;;;;1.60;1.50;;;18.60;36.50;;;;;;4943910;28;20550;-88
2023/01/24 10:36:34;;;;;;;1.90;1.80;;;18.60;36.50;;;;;;4957011;28;20491;-88
2023/01/24 10:38:59;;;;;;;1.57;1.47;;;18.60;36.50;;;;;;4944197;28;21358;-88
2023/01/24 10:41:29;;;;;;;1.80;1.70;;;18.60;36.50;;;;;;4952194;28;20475;-88
2023/01/24 10:44:22;;;;;;;1.60;1.50;;;18.60;36.50;;;;;;4947953;28;20308;-88
2023/01/24 10:46:59;;;;;;;1.60;1.50;;;18.60;36.50;;;;;;4958780;28;20973;-88
2023/01/24 10:49:41;;;;;;;1.73;1.63;;;18.60;36.50;;;;;;4940008;28;20467;-90
2023/01/24 10:52:21;;;;;;;1.70;1.60;;;18.60;36.50;;;;;;4955858;28;20437;-89
2023/01/24 10:54:48;;;;;;;1.63;1.53;;;18.70;36.60;;;;;;4962193;28;20445;-88
2023/01/24 10:57:31;;;;;;;1.57;1.47;;;18.60;36.50;;;;;;4961140;28;20753;-89
2023/01/24 11:00:05;;;;;;;1.80;1.70;;;18.60;36.50;;;;;;4946160;28;20950;-88
2023/01/24 11:02:34;;;;;;;1.60;1.50;;;18.60;36.50;;;;;;4961668;28;20476;-88
2023/01/24 11:05:06;;;;;;;2.50;1.60;;;18.70;36.60;;;;;;4962836;28;20507;-88
2023/01/24 11:07:40;;;;;;;1.67;1.57;;;18.70;36.60;;;;;;4951789;28;20488;-88
2023/01/24 11:10:36;;;;;;;1.90;1.80;;;18.70;36.60;;;;;;4960615;28;20425;-89
2023/01/24 11:13:18;;;;;;;1.70;1.60;;;18.70;36.50;;;;;;4952077;28;20443;-88
2023/01/24 11:15:50;;;;;;;1.90;1.80;;;18.70;36.60;;;;;;4936204;28;20526;-88
2023/01/24 11:18:27;;;;;;;2.10;2.00;;;18.70;36.60;;;;;;4959216;28;20563;-89
2023/01/24 11:21:14;;;;;;;1.50;1.40;;;18.70;36.50;;;;;;4945233;28;20471;-88
2023/01/24 11:23:41;;;;;;;1.70;1.60;;;18.70;36.60;;;;;;4943574;28;20431;-88
2023/01/24 11:26:24;;;;;;;1.47;1.37;;;18.70;36.60;;;;;;4941584;28;20426;-88
2023/01/24 11:29:05;;;;;;;1.57;1.47;;;18.70;36.60;;;;;;4945544;28;20441;-88
2023/01/24 11:31:42;;;;;;;1.57;1.47;;;18.70;36.60;;;;;;4946455;28;20471;-88
2023/01/24 11:34:32;;;;;;;1.60;1.50;;;18.70;36.60;;;;;;4962283;28;20449;-88
2023/01/24 11:36:59;;;;;;;1.80;1.70;;;18.70;36.50;;;;;;4958502;28;20449;-88
2023/01/24 11:39:51;;;;;;;1.63;1.53;;;18.70;36.60;;;;;;4960225;28;20450;-89
2023/01/24 11:42:41;;;;;;;1.57;1.47;;;18.70;36.60;;;;;;4952547;28;20478;-89
2023/01/24 11:45:32;;;;;;;1.63;1.53;;;18.70;36.50;;;;;;4964698;28;20531;-89
2023/01/24 11:48:15;;;;;;;1.90;1.80;;;18.70;36.50;;;;;;4961741;28;20927;-88
2023/01/24 11:51:01;;;;;;;1.40;1.30;;;18.70;36.60;;;;;;4945037;28;20464;-88
2023/01/24 11:53:45;;;;;;;1.60;1.50;;;18.70;36.50;;;;;;4965078;28;20833;-88
2023/01/24 11:56:41;;;;;;;2.00;1.90;;;18.70;36.60;;;;;;4949910;28;20549;-88
2023/01/24 11:59:38;;;;;;;1.90;1.80;;;18.70;36.60;;;;;;4948981;28;20480;-88
2023/01/24 12:02:23;;;;;;;2.10;1.93;;;18.70;36.50;;;;;;4954879;28;20441;-89
2023/01/24 12:05:00;;;;;;;1.73;1.63;;;18.70;36.60;;;;;;4932503;29;20474;-88
2023/01/24 12:07:50;;;;;;;1.50;1.40;;;18.70;36.60;;;;;;4965211;28;20490;-89
2023/01/24 12:10:33;;;;;;;2.33;1.67;;;18.70;36.50;;;;;;4947183;28;20442;-88
2023/01/24 12:13:08;;;;;;;1.90;1.80;;;18.70;36.60;;;;;;4936580;28;20507;-89
2023/01/24 12:16:17;;;;;;;1.80;1.70;;;18.70;36.60;;;;;;4954801;28;20448;-89
2023/01/24 12:18:48;;;;;;;1.80;1.70;;;18.70;36.50;;;;;;4939895;28;20992;-88
2023/01/24 12:21:14;;;;;;;1.70;1.60;;;18.70;36.60;;;;;;4928454;28;20841;-89
2023/01/24 12:24:01;;;;;;;1.53;1.43;;;18.70;36.50;;;;;;4949336;28;20447;-88
2023/01/24 12:26:30;;;;;;;1.80;1.70;;;18.70;36.60;;;;;;4955522;28;20254;-88
2023/01/24 12:29:31;;;;;;;1.50;1.40;;;18.70;36.60;;;;;;4945724;28;20957;-88
2023/01/24 12:32:05;;;;;;;1.50;1.40;;;18.70;36.60;;;;;;4927468;28;20499;-88
2023/01/24 12:34:52;;;;;;;1.77;1.67;;;18.70;36.60;;;;;;4944818;28;20471;-89
2023/01/24 12:37:42;;;;;;;1.77;1.67;;;18.70;36.60;;;;;;4946519;28;23298;-89
2023/01/24 12:40:20;;;;;;;1.60;1.50;;;18.70;36.60;;;;;;4949527;28;20441;-89
2023/01/24 12:43:03;;;;;;;1.53;1.43;;;18.70;36.60;;;;;;4942174;28;21182;-89
2023/01/24 12:46:05;;;;;;;1.60;1.50;;;18.60;36.50;;;;;;4939753;28;21088;-89
2023/01/24 12:48:48;;;;;;;1.70;1.60;;;18.60;36.50;;;;;;4948520;28;20443;-89
2023/01/24 12:51:22;;;;;;;1.87;1.77;;;18.60;36.50;;;;;;4940656;28;20462;-88
2023/01/24 12:54:02;;;;;;;1.63;1.53;;;18.60;36.50;;;;;;4949031;28;20768;-89
2023/01/24 12:56:50;;;;;;;1.50;1.40;;;18.60;36.50;;;;;;4961618;28;20796;-89
2023/01/24 12:59:24;;;;;;;1.60;1.50;;;18.60;36.50;;;;;;4961468;28;20448;-89
2023/01/24 13:02:09;;;;;;;1.67;1.57;;;18.60;36.50;;;;;;4963020;28;20458;-89
2023/01/24 13:04:35;;;;;;;1.90;1.80;;;18.60;36.50;;;;;;4963659;28;20491;-88
2023/01/24 13:07:42;;;;;;;1.60;1.50;;;18.60;36.50;;;;;;4961875;28;20495;-89
2023/01/24 13:10:24;;;;;;;1.70;1.60;;;18.60;36.50;;;;;;4914072;29;20235;-88
2023/01/24 13:12:51;;;;;;;1.50;1.40;;;18.60;36.50;;;;;;4916263;29;20456;-89
2023/01/24 13:15:44;;;;;;;1.63;1.53;;;18.70;36.70;;;;;;4937179;28;20592;-89
2023/01/24 13:19:00;;;;;;;1.70;1.60;;;18.60;36.50;;;;;;4955546;28;20472;-89
2023/01/24 13:21:34;;;;;;;1.40;1.30;;;18.60;36.50;;;;;;4932618;28;20422;-89
2023/01/24 13:24:32;;;;;;;1.90;1.57;;;18.60;36.60;;;;;;4942669;28;20928;-88
2023/01/24 13:27:19;;;;;;;1.60;1.50;;;18.60;36.60;;;;;;4942737;28;20938;-89
2023/01/24 13:30:04;;;;;;;1.80;1.70;;;18.60;36.60;;;;;;4943848;28;20552;-88
2023/01/24 13:32:38;;;;;;;1.60;1.50;;;18.60;36.50;;;;;;4955381;28;20459;-89
2023/01/24 13:35:16;;;;;;;1.50;1.40;;;18.70;36.60;;;;;;4941875;28;20446;-89
2023/01/24 13:37:48;;;;;;;1.67;1.57;;;18.70;36.60;;;;;;4963438;28;20517;-89
2023/01/24 13:40:13;;;;;;;1.57;1.47;;;18.70;36.60;;;;;;4960879;28;20498;-88
2023/01/24 13:42:39;;;;;;;1.43;1.33;;;18.70;36.60;;;;;;4963599;28;20462;-89
2023/01/24 13:45:26;;;;;;;1.80;1.70;;;18.70;36.60;;;;;;4963847;28;20233;-89
2023/01/24 13:47:53;;;;;;;1.50;1.40;;;18.70;36.60;;;;;;4963589;28;20315;-88